Time;durP1;ratioP1;P1;durP2;ratioP2;P2;SDS_P1;SDS_P2;PMS_P1;PMS_P2;Temp;Humidity;BMP_temperature;BMP_pressure;BME280_temperature;BME280_humidity;BME280_pressure;Samples;Min_cycle;Max_cycle;Signal;HPM_P1;HPM_P2
2022/07/23 00:00:54;;;;;;;13.30;9.55;;;;;;;23.53;100.00;100228.06;20901779;28;20131;-72
2022/07/23 00:10:55;;;;;;;12.45;9.75;;;;;;;23.36;100.00;100247.13;20901884;28;20056;-72
2022/07/23 00:20:56;;;;;;;13.18;10.38;;;;;;;23.23;100.00;100260.47;20901805;28;20457;-72
2022/07/23 00:30:58;;;;;;;12.70;9.40;;;;;;;23.05;100.00;100281.34;20900468;28;20048;-72
2022/07/23 00:40:59;;;;;;;14.27;9.23;;;;;;;22.99;100.00;100271.06;20900316;28;20052;-72
2022/07/23 00:51:00;;;;;;;13.05;8.93;;;;;;;22.84;100.00;100251.59;20904471;28;20056;-72
2022/07/23 01:01:02;;;;;;;13.63;9.82;;;;;;;22.48;100.00;100263.81;20916124;28;20057;-72
2022/07/23 01:11:03;;;;;;;11.73;9.02;;;;;;;22.19;100.00;100251.59;20915619;28;20045;-72
2022/07/23 01:21:05;;;;;;;14.00;9.25;;;;;;;22.05;100.00;100265.78;20914382;28;20059;-73
2022/07/23 01:31:06;;;;;;;12.07;9.23;;;;;;;22.06;100.00;100234.66;20931025;28;20155;-72
2022/07/23 01:41:08;;;;;;;13.20;9.57;;;;;;;21.94;100.00;100209.63;20937898;28;20063;-72
2022/07/23 01:51:10;;;;;;;11.10;9.45;;;;;;;21.95;100.00;100246.03;20912731;28;20140;-72
2022/07/23 02:01:11;;;;;;;10.52;8.65;;;;;;;21.82;100.00;100256.63;20911019;28;20049;-72
2022/07/23 02:11:13;;;;;;;14.95;8.77;;;;;;;21.61;100.00;100256.19;20910895;28;20468;-73
2022/07/23 02:21:14;;;;;;;12.10;9.82;;;;;;;21.26;100.00;100256.56;20911180;28;20048;-73
2022/07/23 02:31:15;;;;;;;12.70;10.50;;;;;;;21.13;100.00;100258.31;20909327;28;20048;-73
2022/07/23 02:41:17;;;;;;;10.52;8.73;;;;;;;21.32;100.00;100281.13;20908261;28;20465;-73
2022/07/23 02:51:18;;;;;;;12.38;8.68;;;;;;;21.42;100.00;100282.28;20907929;28;20056;-73
2022/07/23 03:01:20;;;;;;;10.50;8.30;;;;;;;21.58;100.00;100293.69;20906397;28;20048;-73
2022/07/23 03:11:21;;;;;;;11.63;8.35;;;;;;;21.48;100.00;100327.19;20906000;28;20053;-72
2022/07/23 03:21:23;;;;;;;12.65;8.63;;;;;;;21.54;100.00;100317.97;20904861;28;20140;-72
2022/07/23 03:31:24;;;;;;;9.95;8.40;;;;;;;21.61;100.00;100317.50;20904871;28;20057;-73
2022/07/23 03:41:25;;;;;;;10.20;7.95;;;;;;;21.57;100.00;100320.44;20903702;28;20139;-73
2022/07/23 03:51:27;;;;;;;11.55;8.30;;;;;;;21.43;100.00;100331.94;20903254;28;20045;-74
2022/07/23 04:01:28;;;;;;;11.00;8.30;;;;;;;21.18;100.00;100338.75;20902585;28;20576;-72
2022/07/23 04:11:30;;;;;;;11.18;8.18;;;;;;;21.14;100.00;100366.50;20936747;28;20059;-73
2022/07/23 04:21:31;;;;;;;10.80;8.05;;;;;;;20.98;100.00;100366.56;20908011;28;20107;-73
2022/07/23 04:31:32;;;;;;;12.07;7.88;;;;;;;21.16;100.00;100369.06;20899747;28;20110;-72
2022/07/23 04:41:37;;;;;;;13.98;8.60;;;;;;;21.21;100.00;100370.50;20900387;28;20049;-73
2022/07/23 04:51:39;;;;;;;11.70;8.50;;;;;;;21.20;100.00;100400.75;20936353;23;20440;-69
2022/07/23 05:01:41;;;;;;;10.35;8.05;;;;;;;21.09;100.00;100411.19;20981763;28;20055;-69
2022/07/23 05:11:43;;;;;;;12.25;8.23;;;;;;;21.12;100.00;100400.34;20981417;28;20049;-69
2022/07/23 05:21:44;;;;;;;12.32;9.27;;;;;;;21.23;100.00;100386.41;20982139;28;20439;-71
2022/07/23 05:31:46;;;;;;;14.68;8.30;;;;;;;21.47;100.00;100394.75;20982486;28;20048;-69
2022/07/23 05:41:47;;;;;;;12.38;8.57;;;;;;;21.65;100.00;100420.25;20994254;28;20412;-68
2022/07/23 05:51:48;;;;;;;9.85;8.07;;;;;;;21.51;100.00;100393.59;20996820;28;20052;-70
2022/07/23 06:01:50;;;;;;;14.93;9.60;;;;;;;20.64;100.00;100442.16;20993919;28;20048;-69
2022/07/23 06:11:51;;;;;;;15.85;10.93;;;;;;;20.70;100.00;100441.84;20994881;28;20464;-72
2022/07/23 06:21:53;;;;;;;14.35;9.63;;;;;;;20.79;100.00;100439.56;20994017;28;20068;-70
2022/07/23 06:31:54;;;;;;;14.77;10.93;;;;;;;21.21;100.00;100471.69;20992150;28;20049;-70
2022/07/23 06:41:55;;;;;;;11.90;10.02;;;;;;;21.75;100.00;100455.19;20991487;28;20496;-70
2022/07/23 06:52:01;;;;;;;14.73;11.13;;;;;;;22.16;100.00;100476.66;20989437;28;20048;-70
2022/07/23 07:02:02;;;;;;;13.88;10.00;;;;;;;22.57;100.00;100489.19;20990096;28;20067;-71
2022/07/23 07:12:04;;;;;;;14.38;11.07;;;;;;;22.70;100.00;100483.91;20988065;28;20093;-70
2022/07/23 07:22:05;;;;;;;13.60;10.25;;;;;;;22.45;100.00;100481.94;20948901;28;20401;-70
2022/07/23 07:32:06;;;;;;;11.32;9.13;;;;;;;22.81;100.00;100488.56;20943964;28;20044;-71
2022/07/23 07:42:08;;;;;;;12.43;9.65;;;;;;;23.06;100.00;100498.50;20943825;28;20044;-70
2022/07/23 07:52:09;;;;;;;12.63;9.52;;;;;;;23.59;100.00;100505.59;20942288;28;20048;-70
2022/07/23 08:02:10;;;;;;;16.90;10.40;;;;;;;23.68;100.00;100512.16;20913931;28;20059;-70
2022/07/23 08:12:12;;;;;;;14.77;9.88;;;;;;;24.06;95.86;100501.47;20935797;28;20049;-70
2022/07/23 08:22:13;;;;;;;12.40;9.25;;;;;;;24.08;90.08;100518.25;20941468;28;20044;-69
2022/07/23 08:32:14;;;;;;;14.00;9.70;;;;;;;24.52;91.45;100522.31;20940016;28;20052;-70
2022/07/23 08:42:36;;;;;;;14.40;11.00;;;;;;;24.24;90.96;100529.63;20939206;28;20041;-70
2022/07/23 08:52:37;;;;;;;13.30;8.98;;;;;;;24.57;90.55;100523.69;20954992;28;20413;-70
2022/07/23 09:02:39;;;;;;;13.88;10.35;;;;;;;25.52;82.43;100519.34;20982511;28;20062;-70
2022/07/23 09:12:40;;;;;;;13.80;10.70;;;;;;;25.53;84.22;100514.84;20988040;28;20068;-70
2022/07/23 09:22:41;;;;;;;17.08;9.90;;;;;;;25.22;87.59;100511.81;20998948;28;20519;-73
2022/07/23 09:32:43;;;;;;;14.70;9.90;;;;;;;25.26;88.77;100517.81;20996267;28;20053;-70
2022/07/23 09:42:44;;;;;;;17.25;11.10;;;;;;;25.55;88.36;100507.53;20995768;28;20052;-70
2022/07/23 09:52:47;;;;;;;14.43;10.70;;;;;;;26.11;83.99;100499.63;20997227;28;20048;-72
2022/07/23 10:02:49;;;;;;;14.30;11.73;;;;;;;26.19;80.09;100505.22;20994780;28;20060;-72
2022/07/23 10:23:10;;;;;;;14.23;9.60;;;;;;;26.03;74.42;100510.97;20941899;28;20155;-72
2022/07/23 10:33:11;;;;;;;14.00;9.25;;;;;;;26.35;72.22;100512.94;20992292;28;20056;-71
2022/07/23 10:43:13;;;;;;;10.50;8.38;;;;;;;27.47;62.16;100495.69;20977107;28;20444;-69
2022/07/23 10:53:19;;;;;;;11.07;8.70;;;;;;;26.78;65.52;100504.97;20957226;28;20045;-72
2022/07/23 11:03:21;;;;;;;11.85;8.13;;;;;;;27.71;59.90;100493.63;20907324;28;20052;-71
2022/07/23 11:13:22;;;;;;;12.93;9.57;;;;;;;27.72;59.45;100506.09;20908184;28;20512;-72
2022/07/23 11:23:24;;;;;;;12.02;9.35;;;;;;;27.18;64.69;100496.31;20906573;28;20048;-71
2022/07/23 11:33:25;;;;;;;12.32;8.90;;;;;;;26.68;66.05;100495.06;20904638;28;20064;-70
2022/07/23 11:43:26;;;;;;;9.90;8.60;;;;;;;27.36;60.23;100494.78;20905643;28;20092;-73
2022/07/23 11:53:28;;;;;;;11.93;8.07;;;;;;;27.90;55.37;100473.19;20904218;28;20049;-70
2022/07/23 12:03:29;;;;;;;9.93;7.78;;;;;;;28.37;52.44;100456.41;20902473;28;20052;-69
2022/07/23 12:13:31;;;;;;;10.30;7.70;;;;;;;29.07;48.17;100453.72;20901878;28;20564;-68
2022/07/23 12:23:32;;;;;;;10.77;7.35;;;;;;;28.48;48.49;100446.53;20900441;28;20135;-69
2022/07/23 12:33:34;;;;;;;10.18;7.03;;;;;;;28.53;49.15;100438.88;20899938;28;20103;-68
2022/07/23 12:43:35;;;;;;;9.98;7.97;;;;;;;28.82;49.70;100441.59;20898936;28;20056;-66
2022/07/23 12:53:36;;;;;;;9.02;7.20;;;;;;;29.87;45.58;100445.22;20914091;28;20440;-69
2022/07/23 13:03:37;;;;;;;9.27;6.88;;;;;;;30.32;43.17;100430.97;20914983;28;20056;-69
2022/07/23 13:13:39;;;;;;;10.18;7.03;;;;;;;29.69;43.47;100427.25;20915120;28;20045;-69
2022/07/23 13:23:41;;;;;;;8.83;7.37;;;;;;;30.04;42.12;100423.81;20914782;28;20541;-69
2022/07/23 13:33:43;;;;;;;10.55;7.50;;;;;;;30.18;41.56;100428.75;20923036;28;20048;-71
2022/07/23 13:43:44;;;;;;;8.60;7.30;;;;;;;29.65;44.64;100429.38;20912740;28;20084;-71
2022/07/23 13:53:47;;;;;;;9.38;6.75;;;;;;;29.69;43.75;100425.38;20912531;28;20095;-69
2022/07/23 14:03:50;;;;;;;8.60;6.60;;;;;;;29.66;43.88;100425.69;20909845;28;20244;-69
2022/07/23 14:13:52;;;;;;;12.00;7.28;;;;;;;29.59;43.39;100425.41;20915636;28;20504;-69
2022/07/23 14:23:53;;;;;;;11.20;7.30;;;;;;;29.05;45.61;100426.06;20909604;28;20061;-69
2022/07/23 14:33:55;;;;;;;10.38;7.25;;;;;;;29.32;44.31;100434.25;20908660;28;20111;-66
2022/07/23 14:43:56;;;;;;;12.15;6.78;;;;;;;30.35;41.67;100410.91;20907990;28;20049;-67
2022/07/23 14:53:58;;;;;;;10.52;7.22;;;;;;;30.61;40.20;100419.13;20908237;28;20052;-68
2022/07/23 15:03:59;;;;;;;13.07;8.63;;;;;;;29.55;48.43;100428.56;20906438;28;20059;-68
2022/07/23 15:14:21;;;;;;;14.00;8.57;;;;;;;28.92;53.23;100417.34;20906028;28;20048;-68
2022/07/23 15:24:28;;;;;;;10.50;7.93;;;;;;;28.79;54.12;100415.78;20905860;28;20048;-68
2022/07/23 15:34:30;;;;;;;9.23;7.38;;;;;;;28.96;52.43;100427.75;20904019;28;20412;-68
2022/07/23 15:44:32;;;;;;;11.35;8.15;;;;;;;28.20;54.73;100430.09;20903824;28;20065;-68
2022/07/23 15:54:33;;;;;;;11.77;10.50;;;;;;;28.40;54.09;100414.03;20903835;28;20424;-68
2022/07/23 16:04:35;;;;;;;10.63;8.32;;;;;;;28.36;53.59;100406.25;20914738;28;20052;-68
2022/07/23 16:14:36;;;;;;;12.48;8.32;;;;;;;28.28;50.63;100406.03;20942547;28;20401;-67
2022/07/23 16:24:37;;;;;;;11.00;8.43;;;;;;;28.56;49.91;100415.22;20922118;28;20045;-68
2022/07/23 16:34:39;;;;;;;11.00;7.32;;;;;;;29.05;48.78;100405.31;20890935;28;20045;-69
2022/07/23 16:44:40;;;;;;;10.25;8.73;;;;;;;28.82;53.60;100409.28;20968969;28;20110;-69
2022/07/23 16:54:41;;;;;;;13.85;10.40;;;;;;;28.74;56.06;100404.56;20891951;23;20068;-71
2022/07/23 17:04:43;;;;;;;10.57;9.13;;;;;;;28.92;55.14;100409.28;20809640;28;20083;-71
2022/07/23 17:14:45;;;;;;;10.13;8.85;;;;;;;28.84;54.06;100405.47;20809664;28;20049;-70
2022/07/23 17:24:46;;;;;;;8.75;7.07;;;;;;;28.78;53.84;100407.84;20808373;28;20313;-70
2022/07/23 17:34:47;;;;;;;12.32;7.80;;;;;;;28.69;50.98;100408.69;20816677;28;20057;-70
2022/07/23 17:44:49;;;;;;;12.25;7.63;;;;;;;28.45;51.08;100409.09;20823318;28;20141;-70
2022/07/23 17:54:50;;;;;;;10.27;7.85;;;;;;;28.27;54.56;100419.66;20823530;28;20045;-70
2022/07/23 18:04:51;;;;;;;11.27;7.72;;;;;;;28.15;51.23;100429.66;20821740;28;20185;-71
2022/07/23 18:14:53;;;;;;;9.77;6.85;;;;;;;28.09;49.99;100427.53;20823693;28;20068;-70
2022/07/23 18:24:55;;;;;;;9.53;7.00;;;;;;;28.16;51.39;100428.66;20821783;28;20061;-70
2022/07/23 18:34:57;;;;;;;10.10;7.60;;;;;;;27.93;52.18;100430.72;20819310;28;20060;-70
2022/07/23 18:45:00;;;;;;;8.60;6.70;;;;;;;27.52;51.70;100442.34;20818286;28;20084;-70
2022/07/23 18:55:07;;;;;;;8.30;6.60;;;;;;;27.36;51.92;100454.44;20819376;28;20049;-70
2022/07/23 19:05:09;;;;;;;10.60;6.50;;;;;;;26.97;54.75;100473.88;20817690;28;20060;-70
2022/07/23 19:15:11;;;;;;;8.95;7.07;;;;;;;26.43;60.80;100485.47;20769905;28;20046;-70
2022/07/23 19:25:12;;;;;;;10.73;7.05;;;;;;;26.25;58.63;100490.44;20762364;28;20080;-70
2022/07/23 19:35:13;;;;;;;10.00;6.93;;;;;;;25.92;63.60;100502.03;20815965;28;20131;-69
2022/07/23 19:45:15;;;;;;;9.55;7.80;;;;;;;25.32;72.63;100526.22;20760015;28;20042;-68
2022/07/23 19:55:17;;;;;;;9.05;7.28;;;;;;;25.09;75.35;100537.81;20731350;28;20045;-68
2022/07/23 20:05:18;;;;;;;9.80;8.40;;;;;;;24.97;75.39;100554.75;20731012;28;20141;-68
2022/07/23 20:15:20;;;;;;;10.52;8.15;;;;;;;24.79;76.74;100563.16;20778662;28;20096;-69
2022/07/23 20:25:21;;;;;;;13.15;8.95;;;;;;;24.67;79.39;100556.00;20811730;28;20053;-69
2022/07/23 20:35:23;;;;;;;13.88;9.07;;;;;;;24.50;79.35;100559.06;20821281;28;20053;-72
2022/07/23 20:45:24;;;;;;;11.77;8.45;;;;;;;24.17;84.06;100572.94;20811981;28;20056;-73
2022/07/23 20:55:25;;;;;;;10.82;8.52;;;;;;;23.84;87.24;100568.09;20811011;28;20421;-72
2022/07/23 21:05:27;;;;;;;12.15;9.50;;;;;;;23.45;92.43;100578.69;20810582;28;20051;-72
2022/07/23 21:15:28;;;;;;;11.00;8.90;;;;;;;23.58;89.16;100586.75;20825624;28;20108;-72
2022/07/23 21:25:29;;;;;;;11.80;9.15;;;;;;;23.44;93.00;100592.16;20825404;28;20053;-71
2022/07/23 21:35:31;;;;;;;12.55;10.20;;;;;;;23.58;85.72;100594.78;20824474;28;20049;-71
2022/07/23 21:45:32;;;;;;;12.30;8.77;;;;;;;23.45;90.28;100599.22;20824528;28;20490;-71
2022/07/23 21:55:34;;;;;;;12.32;9.02;;;;;;;22.91;96.14;100612.53;20823389;28;20145;-71
2022/07/23 22:05:35;;;;;;;13.52;9.23;;;;;;;23.00;91.85;100609.28;20828802;28;20497;-71
2022/07/23 22:15:36;;;;;;;11.95;9.70;;;;;;;22.57;96.89;100606.63;20831884;28;20061;-71
2022/07/23 22:25:40;;;;;;;14.07;9.43;;;;;;;22.45;95.08;100607.38;20828981;28;20068;-71
2022/07/23 22:35:41;;;;;;;11.85;8.65;;;;;;;22.38;91.41;100611.38;20828472;28;20058;-72
2022/07/23 22:45:43;;;;;;;12.07;8.82;;;;;;;22.30;90.36;100618.97;20827871;28;20057;-71
2022/07/23 22:55:44;;;;;;;12.07;8.18;;;;;;;22.40;84.84;100625.47;20847052;23;1054133;-82
2022/07/23 23:05:45;;;;;;;15.20;7.80;;;;;;;22.47;82.17;100621.44;20931131;28;20041;-82
2022/07/23 23:15:49;;;;;;;11.97;7.83;;;;;;;22.45;82.42;100623.38;20905160;28;20075;-82
2022/07/23 23:25:51;;;;;;;10.43;7.43;;;;;;;22.16;83.67;100627.81;20896776;28;20124;-82
2022/07/23 23:35:52;;;;;;;9.63;6.35;;;;;;;22.05;80.07;100630.25;20912757;28;20452;-83
2022/07/23 23:45:53;;;;;;;8.75;6.40;;;;;;;21.91;80.13;100633.72;20920033;28;20057;-82
2022/07/23 23:56:00;;;;;;;11.68;7.20;;;;;;;21.81;87.48;100637.88;20920678;28;20049;-82
